Central Nebraska Regional Airport
KGRI : now visible

Aeroporto :











RITROVATECI SU...

 
LOGIN :

Iscrizione | Disclaimer

   EN    FR    IT 

 









Sommario :    VFR   VFR Marginale   IFR   IFR Intensivo   IFR Molto Intensivo
Visibilità : 
Base nubi : 
>= 8 km
>= 3000ft
5 / 8 km
1000 / 3000 ft
1500m / 5 km
500 / 1000 ft
800 / 1500m
200 / 500 ft
< 800m
< 200 ft
Simboli :   Temporali  Nebbia  Neve Forte  Precipitazioni Forti  Vento > 20 kt






- Altitudine del aeroporto : 1847 ft
- Codice IATA : GRI


KGRI - Central Nebraska Regional

ULTIMO METAR :
  • 280553Z AUTO 25008KT 10SM CLR M01/M04 A3014 RMK AO2 SLP226 T10111044 10039 21022 400611028 58006

METARs OBSOLETI :
  • 280453Z AUTO 27010KT 10SM CLR M01/M04 A3016 RMK AO2 SLP232 T10061039
  • 280353Z AUTO 27009KT 10SM CLR M01/M04 A3017 RMK AO2 SLP235 T10061039

TAF KGRI
Valido dal 28 a 06 ore il 29 a 06 ore UTC


280520Z 2806/2906 27009KT P6SM SCT150
FM281000 28008KT P6SM SCT060 BKN150
FM281400 29011KT P6SM FEW070 SCT150 WS015/32040KT
FM281700 32014G23KT P6SM FEW050 FEW250
FM290000 30005KT P6SM SKC



MetMap, La meteo Aeronautica in un colpo d'occhio ! - Copyright ORBIFLY Dicembre 2007 - Disclaimer

ORBIFLY MET'MAP TEAM :

Programmazione e sviluppo : Alexandra Zaïnal
Concezione : Baudouin d'Aumeries
Aiuto per la programmazione : Marc-Olivier Méhu
Supporto tecnico e logistico : Manuel Goepfert
Aiuto per la traduzione : Arnaldo La Scala

Contatto : metmap@orbifly.com




FONTI E CREDITI :

   NOAA       Earth
Advisory